Time;durP1;ratioP1;P1;durP2;ratioP2;P2;SDS_P1;SDS_P2;PMS_P1;PMS_P2;Temp;Humidity;BMP_temperature;BMP_pressure;BME280_temperature;BME280_humidity;BME280_pressure;Samples;Min_cycle;Max_cycle;Signal;HPM_P1;HPM_P2
2021/05/23 00:00:39;;;;;;;1.98;0.52;;;9.70;99.90;;;;;;6701001;88;20725;-76
2021/05/23 00:10:54;;;;;;;1.65;0.60;;;9.70;99.90;;;;;;6698863;88;20194;-75
2021/05/23 00:20:55;;;;;;;3.00;0.65;;;9.70;99.90;;;;;;6694989;88;20208;-76
2021/05/23 00:30:55;;;;;;;2.28;0.70;;;9.90;99.90;;;;;;6693874;88;20202;-76
2021/05/23 00:40:56;;;;;;;2.17;0.40;;;10.10;99.90;;;;;;6690438;88;20195;-76
2021/05/23 00:50:57;;;;;;;2.37;0.80;;;10.10;99.90;;;;;;6688260;88;20654;-76
2021/05/23 01:00:57;;;;;;;1.50;0.40;;;10.00;99.90;;;;;;6687075;88;20173;-75
2021/05/23 01:11:05;;;;;;;1.52;0.60;;;9.90;99.90;;;;;;6686304;88;20185;-76
2021/05/23 01:21:07;;;;;;;1.50;0.50;;;10.10;99.90;;;;;;6685903;88;20265;-76
2021/05/23 01:31:12;;;;;;;3.05;0.50;;;9.90;99.90;;;;;;6685918;88;20195;-77
2021/05/23 01:41:13;;;;;;;0.80;0.43;;;9.80;99.90;;;;;;6685619;88;20196;-75
2021/05/23 01:51:14;;;;;;;1.15;0.40;;;9.70;99.90;;;;;;6684352;88;20708;-75
2021/05/23 02:01:15;;;;;;;1.12;0.50;;;9.50;99.90;;;;;;6685592;88;20198;-75
2021/05/23 02:11:15;;;;;;;2.33;0.60;;;9.40;99.90;;;;;;6686214;88;20252;-76
2021/05/23 02:21:16;;;;;;;2.67;0.60;;;9.30;99.90;;;;;;6687043;88;20619;-77
2021/05/23 02:31:17;;;;;;;1.55;0.60;;;9.20;99.90;;;;;;6692439;88;20307;-76
2021/05/23 02:41:17;;;;;;;2.08;0.70;;;9.20;99.90;;;;;;6694997;88;20204;-77
2021/05/23 02:51:18;;;;;;;1.45;0.50;;;9.10;99.90;;;;;;6690630;88;20194;-76
2021/05/23 03:01:18;;;;;;;1.70;0.62;;;9.10;99.90;;;;;;6693786;88;20186;-77
2021/05/23 03:11:19;;;;;;;2.08;0.70;;;9.20;99.90;;;;;;6694250;88;20186;-77
2021/05/23 03:21:19;;;;;;;3.17;0.70;;;9.30;99.90;;;;;;6694344;88;20212;-76
2021/05/23 03:31:20;;;;;;;1.65;0.60;;;9.50;99.90;;;;;;6691269;88;20694;-76
2021/05/23 03:41:20;;;;;;;2.80;1.00;;;9.60;99.90;;;;;;6697352;88;20212;-78
2021/05/23 03:51:21;;;;;;;1.95;0.70;;;9.80;99.90;;;;;;6697281;88;20202;-77
2021/05/23 04:01:21;;;;;;;3.37;0.80;;;9.90;99.90;;;;;;6699157;88;20192;-77
2021/05/23 04:11:32;;;;;;;4.00;0.75;;;10.10;99.90;;;;;;6694012;88;20950;-78
2021/05/23 04:21:34;;;;;;;2.03;0.70;;;10.00;99.90;;;;;;6693637;88;20318;-76
2021/05/23 04:31:35;;;;;;;2.47;0.90;;;10.00;99.90;;;;;;6691897;88;20255;-76
2021/05/23 04:41:35;;;;;;;1.55;1.00;;;9.70;99.90;;;;;;6703051;88;20201;-75
2021/05/23 04:51:36;;;;;;;2.42;0.95;;;9.50;99.90;;;;;;6701887;88;20704;-75
2021/05/23 05:01:37;;;;;;;4.10;1.17;;;9.50;99.90;;;;;;6702508;88;20703;-75
2021/05/23 05:11:37;;;;;;;3.10;0.95;;;9.70;99.90;;;;;;6698793;88;20275;-77
2021/05/23 05:21:38;;;;;;;2.20;0.90;;;9.70;99.90;;;;;;6695599;88;20191;-76
2021/05/23 05:31:39;;;;;;;2.37;0.80;;;9.80;99.90;;;;;;6686093;88;20344;-75
2021/05/23 05:41:40;;;;;;;3.60;0.80;;;10.00;99.90;;;;;;6684988;88;20690;-75
2021/05/23 05:51:40;;;;;;;2.10;0.62;;;10.00;99.90;;;;;;6686727;88;20195;-75
2021/05/23 06:01:42;;;;;;;3.28;0.80;;;10.20;99.90;;;;;;6692663;88;20774;-76
2021/05/23 06:11:43;;;;;;;2.10;0.90;;;10.30;99.90;;;;;;6699869;88;20219;-77
2021/05/23 06:21:43;;;;;;;3.20;0.90;;;11.00;99.90;;;;;;6691311;88;20349;-75
2021/05/23 06:31:44;;;;;;;2.62;0.50;;;11.70;99.90;;;;;;6692873;88;20619;-76
2021/05/23 06:41:44;;;;;;;3.03;0.60;;;11.90;99.90;;;;;;6690233;88;20217;-79
2021/05/23 06:51:45;;;;;;;3.87;0.70;;;12.20;99.90;;;;;;6700081;88;20197;-76
2021/05/23 07:01:46;;;;;;;5.40;0.95;;;12.50;99.90;;;;;;6696360;88;20194;-77
2021/05/23 07:11:46;;;;;;;4.77;0.90;;;12.70;99.90;;;;;;6695266;88;20174;-79
2021/05/23 07:21:47;;;;;;;3.30;0.75;;;13.20;99.90;;;;;;6700480;88;20500;-75
2021/05/23 07:31:47;;;;;;;3.33;0.65;;;13.70;99.90;;;;;;6687856;88;20240;-75
2021/05/23 07:41:48;;;;;;;3.87;0.73;;;14.20;99.90;;;;;;6696891;88;20240;-77
2021/05/23 07:51:48;;;;;;;3.00;0.77;;;14.30;99.70;;;;;;6696752;88;20194;-78
2021/05/23 08:01:49;;;;;;;2.35;0.65;;;14.80;98.90;;;;;;6696036;88;21090;-77
2021/05/23 08:11:49;;;;;;;1.62;0.55;;;15.20;97.80;;;;;;6696920;88;20223;-76
2021/05/23 08:21:50;;;;;;;2.92;0.60;;;15.60;94.60;;;;;;6699809;88;20194;-76
2021/05/23 08:31:51;;;;;;;2.53;1.00;;;15.20;94.30;;;;;;6703361;88;20208;-78
2021/05/23 08:41:53;;;;;;;2.55;0.60;;;15.70;93.40;;;;;;6698496;88;20501;-77
2021/05/23 08:51:53;;;;;;;1.92;0.60;;;16.10;91.40;;;;;;6700231;88;20240;-77
2021/05/23 09:02:04;;;;;;;2.33;0.80;;;17.70;88.00;;;;;;6700440;88;20327;-77
2021/05/23 09:12:08;;;;;;;4.10;0.80;;;16.90;86.60;;;;;;6700778;88;20204;-77
2021/05/23 09:22:14;;;;;;;3.12;0.80;;;15.70;89.50;;;;;;6700231;88;20252;-76
2021/05/23 09:32:17;;;;;;;4.47;0.90;;;15.10;91.40;;;;;;6704432;88;20170;-76
2021/05/23 09:42:18;;;;;;;2.87;0.70;;;15.60;91.10;;;;;;6694840;88;20225;-77
2021/05/23 09:52:33;;;;;;;1.80;0.70;;;15.40;91.00;;;;;;6695111;88;20203;-77
2021/05/23 10:02:49;;;;;;;4.17;1.30;;;15.80;90.50;;;;;;6694644;88;20204;-78
2021/05/23 10:12:50;;;;;;;1.83;0.90;;;16.60;91.00;;;;;;6693312;88;20632;-76
2021/05/23 10:22:51;;;;;;;2.30;0.90;;;16.80;89.50;;;;;;6693500;88;20175;-77
2021/05/23 10:32:52;;;;;;;2.97;1.08;;;17.00;89.60;;;;;;6691249;88;20272;-77
2021/05/23 10:42:55;;;;;;;1.93;0.97;;;17.00;87.50;;;;;;6683440;88;20264;-77
2021/05/23 10:52:57;;;;;;;3.70;1.02;;;15.30;93.40;;;;;;6683891;88;20194;-77
2021/05/23 11:03:08;;;;;;;2.37;0.90;;;16.70;92.10;;;;;;6683518;88;20707;-75
2021/05/23 11:13:12;;;;;;;1.90;0.80;;;17.30;89.30;;;;;;6687165;88;20382;-75
2021/05/23 11:23:12;;;;;;;2.15;0.73;;;16.40;87.90;;;;;;6700747;88;20205;-76
2021/05/23 11:33:13;;;;;;;1.87;0.60;;;16.70;87.00;;;;;;6708003;88;20205;-77
2021/05/23 11:43:18;;;;;;;2.25;0.85;;;17.10;82.80;;;;;;6704392;88;20186;-78
2021/05/23 11:53:19;;;;;;;;;;;17.00;83.60;;;;;;6704613;88;20323;-77
2021/05/23 12:03:19;;;;;;;3.58;0.60;;;16.80;85.50;;;;;;6716721;88;20073;-80
2021/05/23 12:13:20;;;;;;;1.90;0.57;;;18.30;79.80;;;;;;6725621;88;20209;-79
2021/05/23 12:23:20;;;;;;;3.15;0.65;;;18.40;78.40;;;;;;6718823;88;20203;-79
2021/05/23 12:33:25;;;;;;;1.33;0.47;;;17.80;80.80;;;;;;6733737;88;20218;-80
2021/05/23 12:43:28;;;;;;;1.87;0.50;;;18.50;77.60;;;;;;6731735;88;20202;-78
2021/05/23 12:53:29;;;;;;;1.98;0.60;;;18.20;75.50;;;;;;6720754;88;20221;-79
2021/05/23 13:03:30;;;;;;;4.10;0.75;;;17.00;79.60;;;;;;6715207;88;20194;-76
2021/05/23 13:13:41;;;;;;;2.70;0.70;;;17.40;80.60;;;;;;6686478;88;20195;-77
2021/05/23 13:23:44;;;;;;;2.10;0.65;;;19.20;76.70;;;;;;6684447;88;20852;-77
2021/05/23 13:33:45;;;;;;;2.47;0.52;;;19.10;74.30;;;;;;6689079;88;20277;-77
2021/05/23 13:43:45;;;;;;;1.95;0.50;;;17.60;76.20;;;;;;6702492;88;20240;-77
2021/05/23 13:53:46;;;;;;;2.00;0.60;;;17.50;78.70;;;;;;6702923;88;20201;-77
2021/05/23 14:03:46;;;;;;;2.40;0.68;;;17.40;79.70;;;;;;6698138;88;20970;-78
2021/05/23 14:13:47;;;;;;;2.25;0.57;;;19.30;77.10;;;;;;6687940;88;20213;-77
2021/05/23 14:23:48;;;;;;;2.33;0.60;;;17.90;76.20;;;;;;6704263;88;20202;-78
2021/05/23 14:33:49;;;;;;;2.33;0.68;;;17.70;78.50;;;;;;6701621;88;20254;-77
2021/05/23 14:43:50;;;;;;;2.28;0.50;;;18.50;77.80;;;;;;6695863;88;20245;-78
2021/05/23 14:53:51;;;;;;;1.80;0.50;;;19.50;76.50;;;;;;6693133;88;20182;-78
2021/05/23 15:03:51;;;;;;;2.83;0.55;;;19.10;76.00;;;;;;6696567;88;20193;-78
2021/05/23 15:13:52;;;;;;;2.15;0.52;;;18.90;79.20;;;;;;6693835;89;20251;-77
2021/05/23 15:23:52;;;;;;;2.03;0.68;;;18.40;79.40;;;;;;6691576;89;20239;-78
2021/05/23 15:33:53;;;;;;;1.98;0.70;;;17.50;78.70;;;;;;6694636;88;20681;-77
2021/05/23 15:43:55;;;;;;;1.10;0.50;;;18.80;79.50;;;;;;6692842;88;20383;-78
2021/05/23 15:53:56;;;;;;;1.08;0.60;;;18.90;78.90;;;;;;6695347;88;20190;-77
2021/05/23 16:03:57;;;;;;;1.37;0.50;;;18.40;80.30;;;;;;6698254;88;20299;-78
2021/05/23 16:13:58;;;;;;;2.50;0.70;;;17.60;80.40;;;;;;6697326;88;20572;-78
2021/05/23 16:23:59;;;;;;;1.75;0.55;;;17.80;80.30;;;;;;6697057;88;20337;-78
2021/05/23 16:33:59;;;;;;;1.98;0.50;;;18.10;76.00;;;;;;6697273;88;20203;-78
2021/05/23 16:44:00;;;;;;;4.28;0.70;;;17.90;76.10;;;;;;6699292;88;20186;-77
2021/05/23 16:54:01;;;;;;;2.53;0.60;;;17.10;79.20;;;;;;6699417;88;20338;-78
2021/05/23 17:04:02;;;;;;;2.30;0.60;;;17.00;79.60;;;;;;6700626;88;20204;-77
2021/05/23 17:14:03;;;;;;;1.12;0.50;;;17.20;78.40;;;;;;6698171;88;21061;-77
2021/05/23 17:24:04;;;;;;;2.28;0.60;;;17.00;81.10;;;;;;6695844;88;20226;-76
2021/05/23 17:34:05;;;;;;;3.17;0.70;;;17.00;83.10;;;;;;6699661;88;20222;-77
2021/05/23 17:44:05;;;;;;;2.15;0.70;;;18.00;80.10;;;;;;6701277;88;20666;-78
2021/05/23 17:54:06;;;;;;;4.47;1.60;;;17.40;81.50;;;;;;6702221;88;20198;-78
2021/05/23 18:04:07;;;;;;;2.00;0.70;;;18.20;78.30;;;;;;6698534;88;20229;-78
2021/05/23 18:14:07;;;;;;;2.17;0.70;;;17.60;79.10;;;;;;6696393;88;20196;-77
2021/05/23 18:24:08;;;;;;;2.67;1.00;;;17.40;79.50;;;;;;6692268;88;20213;-75
2021/05/23 18:34:08;;;;;;;2.33;0.62;;;16.70;81.20;;;;;;6694375;88;20220;-77
2021/05/23 18:44:09;;;;;;;3.58;0.80;;;16.10;82.60;;;;;;6695933;88;20202;-77
2021/05/23 18:54:10;;;;;;;3.45;0.68;;;15.90;83.40;;;;;;6698292;88;20199;-76
2021/05/23 19:04:10;;;;;;;3.35;0.80;;;15.50;84.40;;;;;;6695798;88;20221;-77
2021/05/23 19:14:11;;;;;;;5.53;1.27;;;15.30;85.10;;;;;;6697890;88;20252;-77
2021/05/23 19:24:12;;;;;;;2.13;0.80;;;15.00;86.90;;;;;;6691176;88;20697;-78
2021/05/23 19:34:12;;;;;;;3.50;1.40;;;14.60;89.80;;;;;;6703670;88;20585;-77
2021/05/23 19:44:13;;;;;;;3.60;0.90;;;14.20;91.20;;;;;;6696215;88;20195;-78
2021/05/23 19:54:13;;;;;;;5.20;0.90;;;14.00;91.20;;;;;;6705337;88;20253;-76
2021/05/23 20:04:17;;;;;;;3.53;1.00;;;13.90;92.00;;;;;;6706315;88;20190;-78
2021/05/23 20:14:18;;;;;;;3.35;1.30;;;13.50;93.70;;;;;;6704839;88;20643;-77
2021/05/23 20:24:19;;;;;;;4.47;1.48;;;13.20;95.70;;;;;;6693716;88;20195;-77
2021/05/23 20:34:20;;;;;;;3.63;1.23;;;12.90;97.10;;;;;;6696886;88;20211;-77
2021/05/23 20:44:20;;;;;;;1.92;0.77;;;12.70;98.00;;;;;;6701315;88;21309;-77
2021/05/23 20:54:21;;;;;;;6.07;1.75;;;12.50;98.90;;;;;;6700467;88;20677;-77
2021/05/23 21:04:22;;;;;;;2.95;0.95;;;12.20;99.90;;;;;;6703347;88;20209;-77
2021/05/23 21:14:22;;;;;;;4.32;1.40;;;12.20;99.90;;;;;;6705149;88;20201;-77
2021/05/23 21:24:23;;;;;;;3.25;1.12;;;12.20;99.90;;;;;;6700570;88;20643;-77
2021/05/23 21:34:23;;;;;;;6.53;1.37;;;12.20;99.90;;;;;;6705399;88;20214;-77
2021/05/23 21:44:24;;;;;;;4.32;1.00;;;12.00;99.90;;;;;;6699686;88;20978;-77
2021/05/23 21:54:24;;;;;;;2.50;0.90;;;12.00;99.90;;;;;;6700434;88;20246;-77
2021/05/23 22:04:25;;;;;;;3.13;0.87;;;12.00;99.90;;;;;;6702459;88;20236;-77
2021/05/23 22:14:26;;;;;;;3.78;0.90;;;11.90;99.90;;;;;;6706724;88;20537;-77
2021/05/23 22:24:26;;;;;;;4.60;1.08;;;11.80;99.90;;;;;;6707143;88;20194;-77
2021/05/23 22:34:27;;;;;;;2.85;0.80;;;11.70;99.90;;;;;;6693830;88;20391;-77
2021/05/23 22:44:27;;;;;;;1.95;0.95;;;11.70;99.90;;;;;;6696743;88;20314;-77
2021/05/23 22:54:28;;;;;;;3.33;0.80;;;11.60;99.90;;;;;;6698960;88;20236;-77
2021/05/23 23:04:38;;;;;;;4.25;1.00;;;11.50;99.90;;;;;;6695650;88;20200;-77
2021/05/23 23:14:39;;;;;;;3.65;0.80;;;11.40;99.90;;;;;;6701413;88;20203;-77
2021/05/23 23:24:39;;;;;;;5.47;1.10;;;11.40;99.90;;;;;;6701010;88;20194;-77
2021/05/23 23:34:40;;;;;;;3.95;0.70;;;11.50;99.90;;;;;;6697893;88;20645;-77
2021/05/23 23:44:40;;;;;;;2.30;0.60;;;11.50;99.90;;;;;;6702543;88;21129;-77
2021/05/23 23:54:41;;;;;;;1.73;0.62;;;11.50;99.90;;;;;;6700869;88;20315;-77
